Time;durP1;ratioP1;P1;durP2;ratioP2;P2;SDS_P1;SDS_P2;PMS_P1;PMS_P2;Temp;Humidity;BMP_temperature;BMP_pressure;BME280_temperature;BME280_humidity;BME280_pressure;Samples;Min_cycle;Max_cycle;Signal;HPM_P1;HPM_P2
2022/03/19 00:01:34;;;;;;;6.10;2.37;;;8.90;99.90;;;;;;4955455;28;20230;-74
2022/03/19 00:04:00;;;;;;;2.63;1.60;;;8.90;99.90;;;;;;4955407;28;20214;-75
2022/03/19 00:06:28;;;;;;;4.87;2.07;;;8.90;99.90;;;;;;4955249;28;20242;-76
2022/03/19 00:08:56;;;;;;;7.33;2.17;;;8.90;99.90;;;;;;4955275;28;20208;-77
2022/03/19 00:11:24;;;;;;;2.73;2.10;;;8.90;99.90;;;;;;4955074;28;20208;-76
2022/03/19 00:13:51;;;;;;;5.83;2.30;;;8.90;99.90;;;;;;4954851;28;20212;-76
2022/03/19 00:16:17;;;;;;;2.90;1.93;;;8.80;99.90;;;;;;4955263;28;20212;-76
2022/03/19 00:18:45;;;;;;;4.77;2.23;;;8.80;99.90;;;;;;4955105;28;20214;-75
2022/03/19 00:21:12;;;;;;;6.17;2.00;;;8.80;99.90;;;;;;4955180;28;20212;-74
2022/03/19 00:23:39;;;;;;;4.93;2.07;;;8.80;99.90;;;;;;4954751;28;20204;-76
2022/03/19 00:26:07;;;;;;;3.40;2.33;;;8.80;99.90;;;;;;4954511;28;20576;-77
2022/03/19 00:28:34;;;;;;;5.40;1.77;;;8.70;99.90;;;;;;4954540;28;20217;-77
2022/03/19 00:31:01;;;;;;;6.13;2.27;;;8.70;99.90;;;;;;4954755;28;20208;-77
2022/03/19 00:33:28;;;;;;;4.03;2.00;;;8.70;99.90;;;;;;4955263;28;20268;-76
2022/03/19 00:35:56;;;;;;;9.00;2.47;;;8.70;99.90;;;;;;4954798;28;20212;-76
2022/03/19 00:38:22;;;;;;;4.63;2.40;;;8.60;99.90;;;;;;4954475;28;20232;-75
2022/03/19 00:40:51;;;;;;;4.00;2.10;;;8.50;99.90;;;;;;4954304;28;20212;-76
2022/03/19 00:43:19;;;;;;;4.50;2.30;;;8.50;99.90;;;;;;4954685;28;20208;-77
2022/03/19 00:45:46;;;;;;;5.83;2.00;;;8.50;99.90;;;;;;4954961;28;20247;-76
2022/03/19 00:48:13;;;;;;;3.97;2.03;;;8.40;99.90;;;;;;4954723;28;20235;-76
2022/03/19 00:50:40;;;;;;;3.13;1.93;;;8.40;99.90;;;;;;4954777;28;20234;-74
2022/03/19 00:53:08;;;;;;;7.80;2.20;;;8.40;99.90;;;;;;4954754;28;20211;-77
2022/03/19 00:55:35;;;;;;;4.63;2.13;;;8.40;99.90;;;;;;4954584;28;20219;-76
2022/03/19 00:58:02;;;;;;;5.00;2.30;;;8.40;99.90;;;;;;4954708;28;20224;-76
2022/03/19 01:00:29;;;;;;;4.70;2.47;;;8.40;99.90;;;;;;4954519;28;20663;-76
2022/03/19 01:02:57;;;;;;;3.70;2.03;;;8.50;99.90;;;;;;4954746;28;20214;-76
2022/03/19 01:05:25;;;;;;;8.37;3.30;;;8.30;99.90;;;;;;4954300;28;20722;-76
2022/03/19 01:07:53;;;;;;;7.17;2.40;;;8.30;99.90;;;;;;4954288;28;20228;-75
2022/03/19 01:10:24;;;;;;;4.47;2.33;;;8.20;99.90;;;;;;4954693;28;20214;-77
2022/03/19 01:12:51;;;;;;;6.77;2.27;;;8.20;99.90;;;;;;4954611;28;20566;-76
2022/03/19 01:15:19;;;;;;;6.33;2.33;;;8.20;99.90;;;;;;4954530;28;20212;-76
2022/03/19 01:17:46;;;;;;;6.00;2.10;;;8.10;99.90;;;;;;4954321;28;20223;-76
2022/03/19 01:20:14;;;;;;;3.60;2.30;;;8.10;99.90;;;;;;4954115;28;20210;-76
2022/03/19 01:22:43;;;;;;;5.77;2.27;;;8.10;99.90;;;;;;4954254;28;20678;-76
2022/03/19 01:25:11;;;;;;;2.87;1.70;;;8.10;99.90;;;;;;4957900;28;20210;-76
2022/03/19 01:27:41;;;;;;;4.70;2.37;;;8.10;99.90;;;;;;4957568;28;21223;-77
2022/03/19 01:30:11;;;;;;;4.13;2.30;;;8.10;99.90;;;;;;4958046;28;20208;-77
2022/03/19 01:32:38;;;;;;;4.83;2.20;;;8.10;99.90;;;;;;4957819;28;20219;-76
2022/03/19 01:35:06;;;;;;;5.17;2.27;;;8.00;99.90;;;;;;4957891;28;20297;-75
2022/03/19 01:37:32;;;;;;;4.63;2.10;;;8.00;99.90;;;;;;4961025;28;20219;-74
2022/03/19 01:39:59;;;;;;;5.73;2.30;;;7.90;99.90;;;;;;4976827;28;20569;-76
2022/03/19 01:42:27;;;;;;;5.90;2.13;;;7.90;99.90;;;;;;4973372;28;20686;-77
2022/03/19 01:44:58;;;;;;;3.63;2.20;;;7.90;99.90;;;;;;4957336;28;20659;-76
2022/03/19 01:47:26;;;;;;;9.97;2.47;;;7.90;99.90;;;;;;4957653;28;20244;-75
2022/03/19 01:49:53;;;;;;;2.80;2.00;;;7.90;99.90;;;;;;4957285;28;20212;-77
2022/03/19 01:52:20;;;;;;;4.07;1.77;;;7.90;99.90;;;;;;4957555;28;20220;-77
2022/03/19 01:54:49;;;;;;;6.13;2.97;;;8.00;99.90;;;;;;4957728;28;20275;-76
2022/03/19 01:57:18;;;;;;;7.33;2.60;;;7.90;99.90;;;;;;4957271;28;20231;-77
2022/03/19 01:59:45;;;;;;;7.67;2.23;;;7.90;99.90;;;;;;4957047;28;20204;-77
2022/03/19 02:02:14;;;;;;;4.73;2.40;;;7.90;99.90;;;;;;4957015;28;20219;-75
2022/03/19 02:04:42;;;;;;;6.57;2.20;;;7.90;99.90;;;;;;4957124;28;20748;-75
2022/03/19 02:07:10;;;;;;;3.40;2.23;;;7.90;99.90;;;;;;4956580;28;20239;-74
2022/03/19 02:09:38;;;;;;;3.87;2.17;;;7.70;99.90;;;;;;4956911;28;20331;-77
2022/03/19 02:12:06;;;;;;;8.50;2.33;;;7.70;99.90;;;;;;4956705;28;20204;-76
2022/03/19 02:14:35;;;;;;;4.57;2.03;;;7.80;99.90;;;;;;4957281;28;20556;-76
2022/03/19 02:17:02;;;;;;;6.40;1.97;;;7.70;99.90;;;;;;4956987;28;20235;-75
2022/03/19 02:19:31;;;;;;;6.23;2.70;;;7.70;99.90;;;;;;4957327;28;20259;-75
2022/03/19 02:21:58;;;;;;;3.27;1.87;;;7.60;99.90;;;;;;4957007;28;20200;-76
2022/03/19 02:27:11;;;;;;;3.93;2.13;;;7.60;99.90;;;;;;4975767;28;20301;-76
2022/03/19 02:29:38;;;;;;;2.60;1.40;;;7.70;99.90;;;;;;4976171;28;20207;-76
2022/03/19 02:32:06;;;;;;;6.30;2.33;;;7.70;99.90;;;;;;4975992;28;20210;-76
2022/03/19 02:34:34;;;;;;;4.13;2.47;;;7.60;99.90;;;;;;4974833;28;20214;-75
2022/03/19 02:37:01;;;;;;;2.70;1.80;;;7.60;99.90;;;;;;4975922;28;20286;-76
2022/03/19 02:39:31;;;;;;;6.53;2.27;;;7.60;99.90;;;;;;4975739;28;20642;-76
2022/03/19 02:42:00;;;;;;;7.57;2.57;;;7.60;99.90;;;;;;4975534;28;20207;-76
2022/03/19 02:44:27;;;;;;;4.00;1.90;;;7.60;99.90;;;;;;4957651;28;20211;-77
2022/03/19 02:46:55;;;;;;;3.40;2.10;;;7.60;99.90;;;;;;4956245;28;20244;-76
2022/03/19 02:49:23;;;;;;;6.10;2.20;;;7.50;99.90;;;;;;4956361;28;20560;-78
2022/03/19 02:51:51;;;;;;;5.50;1.93;;;7.50;99.90;;;;;;4956105;28;20299;-76
2022/03/19 02:54:20;;;;;;;6.10;1.90;;;7.40;99.90;;;;;;4956263;28;20211;-76
2022/03/19 02:56:48;;;;;;;5.77;2.50;;;7.40;99.90;;;;;;4956463;28;20230;-76
2022/03/19 02:59:18;;;;;;;5.73;2.80;;;7.40;99.90;;;;;;4956345;28;20290;-76
2022/03/19 03:01:45;;;;;;;4.67;1.80;;;7.40;99.90;;;;;;4956490;28;20212;-74
2022/03/19 03:04:12;;;;;;;5.63;2.03;;;7.40;99.90;;;;;;4956385;28;20216;-76
2022/03/19 03:06:40;;;;;;;4.50;2.13;;;7.40;99.90;;;;;;4956275;28;20260;-76
2022/03/19 03:09:08;;;;;;;3.90;1.60;;;7.40;99.90;;;;;;4956257;28;20208;-77
2022/03/19 03:11:36;;;;;;;5.63;1.83;;;7.40;99.90;;;;;;4956326;28;20208;-77
2022/03/19 03:14:04;;;;;;;3.07;1.97;;;7.30;99.90;;;;;;4955931;28;20671;-77
2022/03/19 03:16:31;;;;;;;3.70;1.60;;;7.30;99.90;;;;;;4956194;28;20240;-76
2022/03/19 03:19:01;;;;;;;6.23;2.00;;;7.20;99.90;;;;;;4955924;28;20686;-77
2022/03/19 03:21:28;;;;;;;6.37;1.97;;;7.30;99.90;;;;;;4956062;28;20208;-76
2022/03/19 03:23:55;;;;;;;4.23;1.90;;;7.30;99.90;;;;;;4956040;28;20212;-76
2022/03/19 03:26:22;;;;;;;4.17;2.30;;;7.30;99.90;;;;;;4955638;28;20239;-75
2022/03/19 03:28:49;;;;;;;5.63;2.10;;;7.30;99.90;;;;;;4955841;28;20228;-76
2022/03/19 03:31:17;;;;;;;5.00;1.93;;;7.20;99.90;;;;;;4955835;28;20208;-76
2022/03/19 03:33:44;;;;;;;7.27;2.33;;;7.10;99.90;;;;;;4955763;28;20208;-76
2022/03/19 03:36:11;;;;;;;4.23;2.17;;;7.10;99.90;;;;;;4955625;28;20232;-75
2022/03/19 03:38:39;;;;;;;6.47;2.30;;;7.10;99.90;;;;;;4955790;28;20586;-77
2022/03/19 03:41:06;;;;;;;5.13;2.33;;;7.00;99.90;;;;;;4955515;28;20554;-76
2022/03/19 03:43:33;;;;;;;5.43;2.10;;;7.00;99.90;;;;;;4955713;28;20208;-76
2022/03/19 03:46:01;;;;;;;6.57;2.50;;;7.00;99.90;;;;;;4955305;28;20211;-76
2022/03/19 03:48:29;;;;;;;4.23;2.20;;;7.00;99.90;;;;;;4955652;28;20219;-77
2022/03/19 03:50:57;;;;;;;5.57;2.43;;;7.00;99.90;;;;;;4955698;28;20234;-76
2022/03/19 03:53:26;;;;;;;4.03;2.23;;;7.00;99.90;;;;;;4955848;28;20218;-76
2022/03/19 03:55:53;;;;;;;6.13;2.47;;;6.90;99.90;;;;;;4955413;28;20267;-77
2022/03/19 03:58:20;;;;;;;6.27;2.40;;;6.80;99.90;;;;;;4955243;28;20240;-77
2022/03/19 04:00:47;;;;;;;5.10;2.50;;;6.80;99.90;;;;;;4955402;28;20222;-76
2022/03/19 04:03:14;;;;;;;8.57;2.67;;;6.90;99.90;;;;;;4955084;28;20223;-76
2022/03/19 04:05:42;;;;;;;5.40;2.47;;;6.80;99.90;;;;;;4955421;28;20208;-76
2022/03/19 04:08:09;;;;;;;4.40;2.53;;;6.70;99.90;;;;;;4954913;28;20239;-76
2022/03/19 04:10:36;;;;;;;4.97;2.07;;;6.80;99.90;;;;;;4955278;28;20215;-76
2022/03/19 04:13:03;;;;;;;4.10;2.43;;;6.80;99.90;;;;;;4955025;28;20208;-77
2022/03/19 04:15:29;;;;;;;4.93;2.33;;;6.70;99.90;;;;;;4955065;28;20219;-76
2022/03/19 04:17:56;;;;;;;8.17;2.67;;;6.70;99.90;;;;;;4957254;28;20232;-77
2022/03/19 04:20:24;;;;;;;4.03;2.63;;;6.70;99.90;;;;;;4974585;28;20203;-77
2022/03/19 04:22:53;;;;;;;5.57;2.60;;;6.60;99.90;;;;;;4974618;28;20206;-77
2022/03/19 04:25:22;;;;;;;7.37;2.43;;;6.60;99.90;;;;;;4974388;28;20204;-77
2022/03/19 04:27:51;;;;;;;4.93;3.10;;;6.70;99.90;;;;;;4973988;28;20235;-77
2022/03/19 04:30:20;;;;;;;7.17;2.47;;;6.60;99.90;;;;;;4974485;28;20207;-76
2022/03/19 04:32:49;;;;;;;5.90;3.10;;;6.50;99.90;;;;;;4974491;28;20662;-76
2022/03/19 04:38:04;;;;;;;5.67;3.07;;;6.50;99.90;;;;;;4974265;28;20309;-77
2022/03/19 04:40:32;;;;;;;4.27;2.60;;;6.40;99.90;;;;;;4973694;28;20556;-77
2022/03/19 04:42:59;;;;;;;6.40;2.57;;;6.40;99.90;;;;;;4963016;28;20212;-77
2022/03/19 04:45:26;;;;;;;5.97;2.50;;;6.30;99.90;;;;;;4954934;28;20208;-76
2022/03/19 04:47:54;;;;;;;7.20;3.03;;;6.30;99.90;;;;;;4955018;28;20286;-76
2022/03/19 04:50:21;;;;;;;4.77;2.80;;;6.30;99.90;;;;;;4955379;28;20215;-76
2022/03/19 04:52:49;;;;;;;5.90;2.87;;;6.30;99.90;;;;;;4955117;28;20216;-77
2022/03/19 04:55:17;;;;;;;5.33;2.67;;;6.30;99.90;;;;;;4954760;28;20667;-76
2022/03/19 04:57:44;;;;;;;7.70;2.80;;;6.30;99.90;;;;;;4955019;28;20226;-77
2022/03/19 05:00:13;;;;;;;5.87;2.30;;;6.30;99.90;;;;;;4958738;28;20212;-78
2022/03/19 05:02:40;;;;;;;5.63;3.00;;;6.30;99.90;;;;;;4958415;28;20208;-77
2022/03/19 05:05:08;;;;;;;5.13;2.60;;;6.30;99.90;;;;;;4958549;28;20215;-77
2022/03/19 05:07:35;;;;;;;5.23;2.80;;;6.30;99.90;;;;;;4957764;28;20235;-77
2022/03/19 05:12:48;;;;;;;6.13;2.80;;;6.30;99.90;;;;;;4957996;29;20259;-76
2022/03/19 05:15:16;;;;;;;4.97;2.30;;;6.30;99.90;;;;;;4958633;28;20215;-76
2022/03/19 05:17:44;;;;;;;9.20;2.87;;;6.20;99.90;;;;;;4958082;28;20235;-75
2022/03/19 05:20:12;;;;;;;9.60;2.97;;;6.20;99.90;;;;;;4958448;28;20214;-77
2022/03/19 05:22:39;;;;;;;8.57;3.10;;;6.10;99.90;;;;;;4958036;28;20536;-76
2022/03/19 05:25:06;;;;;;;5.37;3.10;;;6.10;99.90;;;;;;4957763;28;20215;-77
2022/03/19 05:27:33;;;;;;;5.73;3.10;;;6.10;99.90;;;;;;4958022;28;20250;-76
2022/03/19 05:30:01;;;;;;;10.23;3.20;;;6.10;99.90;;;;;;4958033;28;20212;-74
2022/03/19 05:32:28;;;;;;;6.00;2.87;;;6.10;99.90;;;;;;4957530;28;20215;-74
2022/03/19 05:34:56;;;;;;;5.63;2.80;;;6.10;99.90;;;;;;4957432;28;20214;-77
2022/03/19 05:37:22;;;;;;;4.57;2.53;;;6.20;99.90;;;;;;4957073;28;20659;-77
2022/03/19 05:39:49;;;;;;;6.40;3.10;;;6.20;99.90;;;;;;4957822;28;20227;-77
2022/03/19 05:42:16;;;;;;;7.37;3.23;;;6.10;99.90;;;;;;4957353;28;20655;-76
2022/03/19 05:44:43;;;;;;;7.90;3.63;;;6.10;99.90;;;;;;4957848;28;20244;-77
2022/03/19 05:47:11;;;;;;;7.17;2.80;;;6.10;99.90;;;;;;4957686;28;20236;-75
2022/03/19 05:49:38;;;;;;;8.73;3.30;;;6.10;99.90;;;;;;4957945;28;20212;-77
2022/03/19 05:52:05;;;;;;;7.17;3.40;;;6.00;99.90;;;;;;4957534;28;20214;-77
2022/03/19 05:54:32;;;;;;;5.83;3.40;;;6.00;99.90;;;;;;4957188;28;20208;-77
2022/03/19 05:56:59;;;;;;;6.77;3.03;;;6.00;99.90;;;;;;4956960;28;20216;-76
2022/03/19 05:59:26;;;;;;;6.07;2.63;;;6.00;99.90;;;;;;4957314;28;20208;-76
2022/03/19 06:01:53;;;;;;;6.23;3.43;;;6.00;99.90;;;;;;4957418;28;20212;-76
2022/03/19 06:04:21;;;;;;;6.43;3.13;;;5.90;99.90;;;;;;4957451;28;20208;-76
2022/03/19 06:06:48;;;;;;;6.47;3.33;;;6.10;99.90;;;;;;4957031;28;20807;-77
2022/03/19 06:09:14;;;;;;;5.23;2.63;;;6.20;99.90;;;;;;4970236;28;20204;-76
2022/03/19 06:11:43;;;;;;;7.63;3.27;;;6.20;99.90;;;;;;4975968;28;20206;-76
2022/03/19 06:14:10;;;;;;;12.43;3.60;;;6.10;99.90;;;;;;4961350;28;20286;-75
2022/03/19 06:16:36;;;;;;;11.03;3.50;;;6.10;99.90;;;;;;4956981;28;20232;-77
2022/03/19 06:19:03;;;;;;;11.00;3.53;;;6.20;99.90;;;;;;4957330;28;20543;-77
2022/03/19 06:21:32;;;;;;;5.50;3.33;;;6.50;99.90;;;;;;4957140;28;20208;-77
2022/03/19 06:23:58;;;;;;;8.33;3.20;;;6.90;99.90;;;;;;4957346;28;20211;-77
2022/03/19 06:26:25;;;;;;;9.83;3.37;;;7.30;99.90;;;;;;4956848;28;20247;-77
2022/03/19 06:28:53;;;;;;;4.50;2.37;;;7.50;99.90;;;;;;4956623;28;20235;-77
2022/03/19 06:31:19;;;;;;;7.67;2.63;;;7.70;99.90;;;;;;4956879;28;20212;-77
2022/03/19 06:33:46;;;;;;;5.93;2.50;;;7.90;99.90;;;;;;4956539;28;20207;-76
2022/03/19 06:38:59;;;;;;;6.93;2.67;;;8.60;99.90;;;;;;4956446;29;20290;-76
2022/03/19 06:41:26;;;;;;;3.70;2.17;;;8.80;99.90;;;;;;4956295;28;20216;-76
2022/03/19 06:43:53;;;;;;;5.03;2.60;;;8.90;99.90;;;;;;4956759;28;20586;-76
2022/03/19 06:46:21;;;;;;;5.33;1.90;;;9.10;99.90;;;;;;4956533;28;20652;-75
2022/03/19 06:48:49;;;;;;;4.07;2.33;;;9.00;99.90;;;;;;4956605;28;20231;-77
2022/03/19 06:51:16;;;;;;;6.03;2.40;;;9.20;99.90;;;;;;4956586;28;20212;-76
2022/03/19 06:53:43;;;;;;;4.27;1.90;;;9.20;99.90;;;;;;4956480;28;20208;-76
2022/03/19 06:56:12;;;;;;;5.90;2.20;;;9.30;99.90;;;;;;4956165;28;20210;-76
2022/03/19 06:58:39;;;;;;;4.67;2.17;;;9.50;99.90;;;;;;4963248;28;20285;-76
2022/03/19 07:01:09;;;;;;;4.63;1.90;;;9.50;99.90;;;;;;4975515;28;20262;-76
2022/03/19 07:03:36;;;;;;;5.50;2.10;;;9.70;99.90;;;;;;4972919;28;20203;-76
2022/03/19 07:06:03;;;;;;;3.20;2.17;;;9.80;99.90;;;;;;4974702;28;20207;-75
2022/03/19 07:08:32;;;;;;;4.50;2.30;;;9.90;99.90;;;;;;4968639;28;20239;-74
2022/03/19 07:10:59;;;;;;;5.77;2.03;;;9.90;99.90;;;;;;4968064;28;20266;-77
2022/03/19 07:13:27;;;;;;;6.50;2.23;;;10.30;99.90;;;;;;4969294;28;20202;-75
2022/03/19 07:15:54;;;;;;;4.30;2.17;;;10.40;99.90;;;;;;4955736;28;20212;-75
2022/03/19 07:18:21;;;;;;;6.37;2.10;;;10.50;99.90;;;;;;4955636;28;20228;-76
2022/03/19 07:20:47;;;;;;;7.00;2.20;;;10.20;99.90;;;;;;4954807;28;20681;-76
2022/03/19 07:23:14;;;;;;;4.67;2.20;;;10.30;99.90;;;;;;4955363;28;20536;-76
2022/03/19 07:25:41;;;;;;;6.73;2.13;;;10.10;99.90;;;;;;4960528;28;20685;-75
2022/03/19 07:28:10;;;;;;;5.93;2.20;;;10.60;99.90;;;;;;4974595;28;20301;-76
2022/03/19 07:30:39;;;;;;;5.57;2.10;;;10.90;99.90;;;;;;4975193;28;20211;-75
2022/03/19 07:33:06;;;;;;;4.07;2.20;;;10.80;99.90;;;;;;4975163;28;20222;-74
2022/03/19 07:35:33;;;;;;;3.77;2.47;;;10.80;99.90;;;;;;4974774;28;20203;-74
2022/03/19 07:38:01;;;;;;;6.00;2.00;;;10.80;99.90;;;;;;4974681;28;20233;-75
2022/03/19 07:43:14;;;;;;;3.97;2.03;;;10.80;99.90;;;;;;4974403;28;20226;-76
2022/03/19 07:45:43;;;;;;;5.33;2.30;;;10.70;99.90;;;;;;4974238;28;20208;-76
2022/03/19 07:48:10;;;;;;;3.77;2.00;;;11.00;99.90;;;;;;4968307;28;20250;-75
2022/03/19 07:50:38;;;;;;;5.10;2.20;;;11.10;99.90;;;;;;4955863;28;20212;-76
2022/03/19 07:53:06;;;;;;;5.90;2.30;;;11.30;99.90;;;;;;4955185;28;20259;-76
2022/03/19 07:55:33;;;;;;;4.93;1.80;;;11.40;99.90;;;;;;4955116;28;20214;-75
2022/03/19 07:58:00;;;;;;;5.10;2.10;;;11.50;99.90;;;;;;4954731;28;20238;-76
2022/03/19 08:00:26;;;;;;;4.20;2.07;;;11.50;99.90;;;;;;4955119;28;20204;-77
2022/03/19 08:02:55;;;;;;;6.00;2.70;;;11.90;99.90;;;;;;4954911;28;20227;-76
2022/03/19 08:05:22;;;;;;;5.57;1.70;;;11.90;99.90;;;;;;4955164;28;20259;-76
2022/03/19 08:07:48;;;;;;;2.97;1.80;;;11.90;99.90;;;;;;4954951;28;20239;-75
2022/03/19 08:10:15;;;;;;;4.07;1.83;;;11.60;99.90;;;;;;4954935;28;20685;-75
2022/03/19 08:12:43;;;;;;;7.00;2.10;;;11.50;99.90;;;;;;4961547;28;20208;-75
2022/03/19 08:15:11;;;;;;;4.40;2.20;;;11.70;99.90;;;;;;4954730;28;20214;-76
2022/03/19 08:17:41;;;;;;;4.50;2.03;;;11.80;99.90;;;;;;4955196;28;20232;-75
2022/03/19 08:20:10;;;;;;;3.83;1.80;;;12.00;99.90;;;;;;4971083;28;20200;-76
2022/03/19 08:22:38;;;;;;;5.73;2.00;;;12.00;99.90;;;;;;4972360;28;20203;-75
2022/03/19 08:25:06;;;;;;;5.83;2.40;;;11.90;99.90;;;;;;4974073;28;20203;-75
2022/03/19 08:27:33;;;;;;;3.97;1.73;;;11.70;99.90;;;;;;4973308;28;20227;-74
2022/03/19 08:30:02;;;;;;;4.83;1.50;;;11.60;99.90;;;;;;4973718;28;20217;-74
2022/03/19 08:32:29;;;;;;;4.40;1.50;;;11.70;99.90;;;;;;4973286;28;20212;-75
2022/03/19 08:34:56;;;;;;;4.50;1.80;;;11.80;99.90;;;;;;4973779;28;20566;-76
2022/03/19 08:37:26;;;;;;;4.30;1.80;;;12.10;99.90;;;;;;4974225;28;20231;-75
2022/03/19 08:42:38;;;;;;;4.43;1.93;;;12.10;99.90;;;;;;4974158;28;20677;-75
2022/03/19 08:45:05;;;;;;;4.70;1.60;;;11.90;99.90;;;;;;4968811;28;20559;-74
2022/03/19 08:47:33;;;;;;;3.10;1.40;;;11.80;99.90;;;;;;4965410;28;20242;-75
2022/03/19 08:50:00;;;;;;;4.07;1.90;;;11.80;99.90;;;;;;4973661;28;20234;-74
2022/03/19 08:52:28;;;;;;;3.93;1.63;;;11.60;99.90;;;;;;4973865;28;20207;-76
2022/03/19 08:54:55;;;;;;;4.67;1.47;;;11.90;99.90;;;;;;4973193;28;20215;-76
2022/03/19 08:57:22;;;;;;;3.60;1.10;;;11.90;99.90;;;;;;4972839;28;20272;-76
2022/03/19 08:59:49;;;;;;;3.03;1.50;;;11.60;99.90;;;;;;4973160;28;20299;-74
2022/03/19 09:02:16;;;;;;;4.73;1.40;;;11.80;99.90;;;;;;4973639;28;20668;-75
2022/03/19 09:04:43;;;;;;;3.03;1.50;;;12.00;99.90;;;;;;4963658;28;20235;-76
2022/03/19 09:07:12;;;;;;;2.33;1.50;;;12.20;99.90;;;;;;4954165;28;20231;-77
2022/03/19 09:09:41;;;;;;;3.27;1.80;;;12.30;99.90;;;;;;4954357;28;20236;-74
2022/03/19 09:12:09;;;;;;;3.10;1.40;;;12.30;99.90;;;;;;4954445;28;20220;-72
2022/03/19 09:14:36;;;;;;;4.17;1.50;;;12.40;99.90;;;;;;4954522;28;20245;-76
2022/03/19 09:17:04;;;;;;;2.57;1.50;;;12.40;99.90;;;;;;4954711;28;20289;-74
2022/03/19 09:19:31;;;;;;;2.93;1.60;;;12.20;99.90;;;;;;4954493;28;20212;-75
2022/03/19 09:21:57;;;;;;;2.40;1.23;;;11.80;99.90;;;;;;4954286;28;20299;-73
2022/03/19 09:24:24;;;;;;;4.87;1.57;;;11.80;99.90;;;;;;4954591;28;20656;-76
2022/03/19 09:26:52;;;;;;;1.83;1.30;;;11.80;99.90;;;;;;4959229;28;20560;-75
2022/03/19 09:29:19;;;;;;;3.60;1.47;;;11.70;99.90;;;;;;4973286;28;20601;-74
2022/03/19 09:31:46;;;;;;;5.27;2.10;;;11.50;99.90;;;;;;4973778;28;20214;-75
2022/03/19 09:34:13;;;;;;;5.33;1.70;;;11.50;99.90;;;;;;4973594;28;20203;-75
2022/03/19 09:36:41;;;;;;;5.53;1.50;;;11.50;99.90;;;;;;4973821;28;20227;-77
2022/03/19 09:39:08;;;;;;;5.03;1.40;;;11.50;99.90;;;;;;4973570;28;20215;-76
2022/03/19 09:41:36;;;;;;;2.60;1.20;;;11.50;99.90;;;;;;4973393;28;20215;-76
2022/03/19 09:44:04;;;;;;;2.33;1.23;;;11.60;99.90;;;;;;4964597;28;20267;-77
2022/03/19 09:46:31;;;;;;;5.07;1.50;;;11.70;99.90;;;;;;4957645;29;20232;-77
2022/03/19 09:48:58;;;;;;;2.00;1.13;;;11.80;99.90;;;;;;4957613;28;20707;-76
2022/03/19 09:51:27;;;;;;;2.50;1.50;;;11.70;99.90;;;;;;4958054;29;20212;-73
2022/03/19 09:53:56;;;;;;;1.63;1.30;;;11.60;99.90;;;;;;4957674;28;20535;-73
2022/03/19 09:56:22;;;;;;;3.63;1.67;;;11.60;99.90;;;;;;4957505;28;20275;-74
2022/03/19 09:58:51;;;;;;;5.03;1.20;;;11.70;99.90;;;;;;4957445;29;20204;-74
2022/03/19 10:01:20;;;;;;;5.87;1.27;;;11.80;99.90;;;;;;4956725;28;20208;-75
2022/03/19 10:03:49;;;;;;;3.03;1.70;;;11.70;99.90;;;;;;4957326;28;20208;-74
2022/03/19 10:09:02;;;;;;;4.37;1.20;;;11.70;99.90;;;;;;4957385;29;20238;-75
2022/03/19 10:11:31;;;;;;;4.00;1.23;;;11.70;99.90;;;;;;4957580;28;20667;-77
2022/03/19 10:13:59;;;;;;;3.70;1.00;;;11.80;99.80;;;;;;4957405;28;20215;-75
2022/03/19 10:16:29;;;;;;;4.07;1.70;;;11.80;99.50;;;;;;4957125;28;20224;-76
2022/03/19 10:18:57;;;;;;;4.07;1.50;;;11.80;99.70;;;;;;4957197;28;20731;-76
2022/03/19 10:21:25;;;;;;;3.30;1.13;;;11.90;99.50;;;;;;4957479;28;20587;-76
2022/03/19 10:23:52;;;;;;;2.30;1.10;;;12.00;98.70;;;;;;4957256;28;20214;-76
2022/03/19 10:26:27;;;;;;;1.63;1.00;;;12.10;98.70;;;;;;4956967;28;20204;-76
2022/03/19 10:28:58;;;;;;;3.43;1.43;;;12.10;98.20;;;;;;4956802;28;20239;-76
2022/03/19 10:31:34;;;;;;;2.00;1.10;;;12.20;98.20;;;;;;4957136;28;20208;-75
2022/03/19 10:34:01;;;;;;;4.00;1.10;;;12.30;97.80;;;;;;4957178;28;20208;-76
2022/03/19 10:36:33;;;;;;;2.27;1.10;;;12.40;98.00;;;;;;4956995;28;20599;-74
2022/03/19 10:39:05;;;;;;;2.70;1.20;;;12.60;98.00;;;;;;4957140;28;20655;-75
2022/03/19 10:41:35;;;;;;;3.00;1.07;;;12.40;96.40;;;;;;4956616;28;20726;-77
2022/03/19 10:44:11;;;;;;;2.60;1.07;;;12.30;95.80;;;;;;4956939;28;20259;-74
2022/03/19 10:46:43;;;;;;;1.20;0.70;;;12.20;95.60;;;;;;4956733;28;20714;-75
2022/03/19 10:49:14;;;;;;;2.17;1.20;;;12.30;95.50;;;;;;4957348;28;20236;-74
2022/03/19 10:51:44;;;;;;;2.07;1.00;;;12.20;95.70;;;;;;4957146;28;20211;-76
2022/03/19 10:54:14;;;;;;;3.20;0.90;;;12.40;96.20;;;;;;4956986;28;20212;-75
2022/03/19 10:56:41;;;;;;;3.10;1.83;;;12.60;95.70;;;;;;4955556;28;20572;-76
2022/03/19 10:59:08;;;;;;;2.73;1.47;;;12.70;95.60;;;;;;4956469;28;20238;-74
2022/03/19 11:01:36;;;;;;;1.37;1.00;;;12.70;96.00;;;;;;4956742;28;20207;-77
2022/03/19 11:04:06;;;;;;;6.63;1.17;;;12.80;95.30;;;;;;4956490;28;20315;-74
2022/03/19 11:06:36;;;;;;;4.80;1.37;;;12.70;95.10;;;;;;4956714;28;20224;-76
2022/03/19 11:09:06;;;;;;;2.43;1.00;;;12.70;95.30;;;;;;4956589;28;20239;-76
2022/03/19 11:11:40;;;;;;;2.83;1.10;;;12.70;95.10;;;;;;4956189;28;20682;-75
2022/03/19 11:14:09;;;;;;;4.70;1.27;;;12.70;94.50;;;;;;4956606;28;20211;-75
2022/03/19 11:16:37;;;;;;;2.53;1.10;;;12.80;94.10;;;;;;4956164;29;20797;-77
2022/03/19 11:19:06;;;;;;;2.33;1.20;;;13.00;94.40;;;;;;4956397;29;20649;-76
2022/03/19 11:21:34;;;;;;;4.90;1.00;;;13.00;94.70;;;;;;4955748;28;20208;-75
2022/03/19 11:24:09;;;;;;;1.93;1.10;;;12.90;93.50;;;;;;4962564;28;20218;-76
2022/03/19 11:26:37;;;;;;;2.67;1.23;;;12.80;94.00;;;;;;4962369;28;20227;-75
2022/03/19 11:29:06;;;;;;;2.07;0.97;;;12.80;93.40;;;;;;4969161;28;20568;-76
2022/03/19 11:31:33;;;;;;;2.47;0.90;;;12.90;92.70;;;;;;4971436;28;20211;-75
2022/03/19 11:34:13;;;;;;;3.60;1.40;;;13.00;93.40;;;;;;4966611;28;20646;-76
2022/03/19 11:36:57;;;;;;;5.30;1.10;;;13.20;93.70;;;;;;4960458;28;20258;-76
2022/03/19 11:39:24;;;;;;;1.70;1.00;;;13.30;93.20;;;;;;4964657;28;20211;-76
2022/03/19 11:41:51;;;;;;;2.83;1.20;;;13.30;93.50;;;;;;4970562;28;20215;-76
2022/03/19 11:44:20;;;;;;;2.40;1.13;;;13.30;92.80;;;;;;4963655;28;20204;-76
2022/03/19 11:47:06;;;;;;;4.30;1.00;;;13.30;91.70;;;;;;4964260;28;20732;-75
2022/03/19 11:49:52;;;;;;;2.37;1.27;;;13.10;91.40;;;;;;4967652;28;20777;-76
2022/03/19 11:52:59;;;;;;;1.70;1.07;;;13.10;90.90;;;;;;4971406;28;20219;-74
2022/03/19 11:55:29;;;;;;;2.17;0.90;;;13.10;89.90;;;;;;4961528;28;20207;-75
2022/03/19 11:57:59;;;;;;;2.60;1.10;;;13.00;89.50;;;;;;4963663;28;20717;-75
2022/03/19 12:00:27;;;;;;;3.67;1.00;;;13.10;88.70;;;;;;4966193;28;20725;-77
2022/03/19 12:03:04;;;;;;;4.27;1.57;;;13.10;89.50;;;;;;4969796;28;20215;-76
2022/03/19 12:05:32;;;;;;;2.33;1.03;;;13.00;88.90;;;;;;4962959;28;20207;-76
2022/03/19 12:08:06;;;;;;;4.13;1.10;;;13.00;90.80;;;;;;4966971;28;20242;-76
2022/03/19 12:10:38;;;;;;;1.30;1.03;;;13.30;90.20;;;;;;4964679;28;20238;-73
2022/03/19 12:13:35;;;;;;;2.00;1.00;;;13.20;89.20;;;;;;4965990;28;20207;-73
2022/03/19 12:16:04;;;;;;;1.73;1.30;;;13.10;90.40;;;;;;4961261;28;20218;-76
2022/03/19 12:18:33;;;;;;;2.30;1.27;;;13.20;91.20;;;;;;4959846;28;20211;-73
2022/03/19 12:21:01;;;;;;;2.37;1.50;;;13.30;91.30;;;;;;4960348;28;20580;-74
2022/03/19 12:23:29;;;;;;;2.77;1.10;;;13.30;91.40;;;;;;4962352;28;20686;-74
2022/03/19 12:26:03;;;;;;;2.37;1.20;;;13.40;91.90;;;;;;4966697;28;20219;-74
2022/03/19 12:28:31;;;;;;;2.47;1.30;;;13.50;91.70;;;;;;4961817;28;20227;-74
2022/03/19 12:31:07;;;;;;;1.87;1.20;;;13.50;91.10;;;;;;4961144;28;20694;-74
2022/03/19 12:33:35;;;;;;;4.53;1.63;;;13.50;91.60;;;;;;4954483;28;20306;-75
2022/03/19 12:36:16;;;;;;;2.07;1.20;;;13.50;91.40;;;;;;4954050;28;20235;-74
2022/03/19 12:38:43;;;;;;;2.13;1.03;;;13.50;90.80;;;;;;4954214;28;20207;-74
2022/03/19 12:41:27;;;;;;;2.97;1.13;;;13.50;90.00;;;;;;4954472;28;20216;-73
2022/03/19 12:43:55;;;;;;;3.40;1.20;;;13.40;90.40;;;;;;4954471;28;20211;-75
2022/03/19 12:46:24;;;;;;;1.77;1.00;;;13.40;88.60;;;;;;4954545;28;20266;-74
2022/03/19 12:48:51;;;;;;;1.63;1.03;;;13.40;88.10;;;;;;4953861;28;20208;-75
2022/03/19 12:51:23;;;;;;;2.17;1.30;;;13.40;87.00;;;;;;4972155;28;20578;-74
2022/03/19 12:53:50;;;;;;;4.80;1.13;;;13.40;89.10;;;;;;4973267;28;20217;-74
2022/03/19 12:56:21;;;;;;;2.77;1.40;;;13.50;88.40;;;;;;4973349;28;20199;-74
2022/03/19 12:58:50;;;;;;;3.43;1.40;;;13.60;90.10;;;;;;4973525;28;20199;-74
2022/03/19 13:01:19;;;;;;;2.27;1.20;;;13.60;89.80;;;;;;4954244;28;20681;-74
2022/03/19 13:03:46;;;;;;;2.93;1.30;;;13.70;90.00;;;;;;4953767;28;20207;-77
2022/03/19 13:06:14;;;;;;;3.37;1.30;;;13.60;90.10;;;;;;4954374;28;20204;-75
2022/03/19 13:08:45;;;;;;;2.80;1.40;;;13.60;90.40;;;;;;4954426;28;20239;-75
2022/03/19 13:11:13;;;;;;;3.13;1.40;;;13.60;90.90;;;;;;4954548;28;20212;-75
2022/03/19 13:13:42;;;;;;;2.90;1.90;;;13.50;91.10;;;;;;4954691;28;20262;-74
2022/03/19 13:16:09;;;;;;;1.93;1.30;;;13.50;91.40;;;;;;4954553;28;20212;-75
2022/03/19 13:18:37;;;;;;;3.70;2.20;;;13.60;91.20;;;;;;4962467;28;20266;-75